Archival Weather

Chicago O'Hare International

Chicago, Illinois (KORD)

Report from: Friday, March 30, 2012 6:30 PM CDT
Current time: Friday, April 19, 2024 4:33 AM CDT

Current weather – Weather history – Daily summaries
Weather forecast

Present weatherHaze
Temperature6.0°C (42.8°F)
Wind chill2.8°C (37.0°F)
Dew point3.0°C (37.4°F)
Winds 9 kts (4.6 m/s, 10.4 mph) North (10°)
Visibility5 mi. (8 km)
Clouds Ceiling: Overcast 1,000 ft. (305 m)
Altimeter29.84 in.Hg (1010 mB)
Relative humidity81 %
Density altitude-879 ft. (-268 m)
Remarks System requires maintenance
Special weather observation
Automated weather observing station with precipitation discriminator
Flight conditions Marginal Visual Meteorological Conditions
Raw data2012-03-30 23:30 KORD 302330Z 01009KT 5SM HZ OVC010 06/03 A2984 RMK AO2 $ SPECI
An error has occurred. This application may no longer respond until reloaded. Reload 🗙